Time;durP1;ratioP1;P1;durP2;ratioP2;P2;SDS_P1;SDS_P2;PMS_P1;PMS_P2;Temp;Humidity;BMP_temperature;BMP_pressure;BME280_temperature;BME280_humidity;BME280_pressure;Samples;Min_cycle;Max_cycle;Signal;HPM_P1;HPM_P2
2021/05/16 00:01:26;;;;;;;4.10;1.40;;;;;;;6.56;100.00;92928.41;5033927;28;20658;-76
2021/05/16 00:03:52;;;;;;;4.57;1.40;;;;;;;6.55;100.00;92914.66;5034169;28;20562;-77
2021/05/16 00:06:18;;;;;;;3.27;1.40;;;;;;;6.58;100.00;92921.25;5034056;28;20200;-76
2021/05/16 00:08:44;;;;;;;6.67;1.20;;;;;;;6.61;100.00;92920.81;5033902;28;20698;-76
2021/05/16 00:11:11;;;;;;;5.33;1.60;;;;;;;6.67;100.00;92920.03;5034266;28;20208;-77
2021/05/16 00:13:37;;;;;;;4.07;1.20;;;;;;;6.64;100.00;92916.06;5034076;28;20200;-77
2021/05/16 00:16:03;;;;;;;2.57;1.30;;;;;;;6.67;100.00;92915.66;5033961;28;20200;-77
2021/05/16 00:18:29;;;;;;;5.53;1.47;;;;;;;6.70;100.00;92924.06;5033900;28;20238;-77
2021/05/16 00:20:58;;;;;;;10.00;1.73;;;;;;;6.67;100.00;92913.06;5033573;28;20204;-77
2021/05/16 00:23:23;;;;;;;3.17;1.50;;;;;;;6.71;100.00;92913.47;5034017;28;20243;-77
2021/05/16 00:25:49;;;;;;;6.77;1.47;;;;;;;6.74;100.00;92909.69;5033632;28;20214;-77
2021/05/16 00:28:16;;;;;;;3.10;1.40;;;;;;;6.72;100.00;92901.31;5033548;28;20607;-77
2021/05/16 00:30:42;;;;;;;7.23;1.50;;;;;;;6.64;100.00;92902.28;5033720;28;20670;-76
2021/05/16 00:33:08;;;;;;;4.70;1.53;;;;;;;6.59;100.00;92900.28;5033594;28;20290;-76
2021/05/16 00:35:37;;;;;;;5.60;1.27;;;;;;;6.57;100.00;92894.50;5033409;28;20257;-76
2021/05/16 00:38:04;;;;;;;10.10;1.73;;;;;;;6.56;100.00;92898.09;5033615;28;20208;-76
2021/05/16 00:40:32;;;;;;;5.87;1.23;;;;;;;6.57;100.00;92898.88;5032791;28;20250;-77
2021/05/16 00:42:58;;;;;;;6.97;1.83;;;;;;;6.54;100.00;92899.28;5033513;28;20206;-77
2021/05/16 00:45:27;;;;;;;6.10;1.40;;;;;;;6.58;100.00;92895.31;5033444;28;20204;-76
2021/05/16 00:47:56;;;;;;;2.90;1.40;;;;;;;6.57;100.00;92894.50;5033199;28;20282;-76
2021/05/16 00:50:24;;;;;;;4.47;1.20;;;;;;;6.60;100.00;92894.09;5033409;28;20196;-76
2021/05/16 00:52:50;;;;;;;6.73;1.50;;;;;;;6.66;100.00;92893.31;5033421;28;20204;-76
2021/05/16 00:55:17;;;;;;;3.90;1.50;;;;;;;6.74;100.00;92899.31;5033352;28;20204;-76
2021/05/16 00:57:43;;;;;;;4.13;1.00;;;;;;;6.78;100.00;92890.13;5033220;28;20286;-76
2021/05/16 01:00:12;;;;;;;3.80;1.20;;;;;;;6.79;100.00;92882.13;5033167;28;20196;-76
2021/05/16 01:02:39;;;;;;;3.80;1.40;;;;;;;6.79;100.00;92881.34;5032831;28;20232;-77
2021/05/16 01:05:08;;;;;;;3.43;1.20;;;;;;;6.80;100.00;92878.56;5033487;28;20211;-76
2021/05/16 01:07:36;;;;;;;5.63;1.70;;;;;;;6.89;100.00;92876.53;5033027;28;20254;-77
2021/05/16 01:10:05;;;;;;;2.90;1.10;;;;;;;6.84;100.00;92879.75;5033100;28;20283;-77
2021/05/16 01:12:38;;;;;;;3.00;1.10;;;;;;;6.84;100.00;92871.16;5033033;28;20223;-77
2021/05/16 01:15:06;;;;;;;5.33;1.10;;;;;;;6.81;100.00;92874.97;5032812;28;20261;-77
2021/05/16 01:17:32;;;;;;;4.83;1.40;;;;;;;6.78;100.00;92872.78;5033096;28;20206;-77
2021/05/16 01:19:59;;;;;;;2.83;1.17;;;;;;;6.80;100.00;92872.56;5029762;28;20208;-77
2021/05/16 01:22:26;;;;;;;4.03;1.50;;;;;;;6.87;100.00;92868.19;5032973;28;20200;-77
2021/05/16 01:24:52;;;;;;;5.40;1.43;;;;;;;6.97;100.00;92868.56;5032885;28;20208;-77
2021/05/16 01:27:19;;;;;;;2.73;1.10;;;;;;;7.00;100.00;92880.34;5032642;28;20561;-76
2021/05/16 01:29:45;;;;;;;3.90;0.97;;;;;;;6.99;100.00;92876.94;5032719;28;20208;-77
2021/05/16 01:32:12;;;;;;;1.70;0.97;;;;;;;6.99;100.00;92882.13;5032864;28;20203;-77
2021/05/16 01:34:39;;;;;;;4.73;1.10;;;;;;;7.09;100.00;92875.75;5032922;28;20200;-77
2021/05/16 01:37:06;;;;;;;4.00;1.30;;;;;;;7.02;100.00;92871.34;5032764;28;20204;-76
2021/05/16 01:39:33;;;;;;;4.43;1.53;;;;;;;7.09;100.00;92871.34;5032847;28;20212;-76
2021/05/16 01:41:59;;;;;;;1.87;0.80;;;;;;;7.12;100.00;92867.56;5032731;28;20199;-76
2021/05/16 01:44:25;;;;;;;2.53;1.30;;;;;;;7.00;100.00;92857.78;5032600;28;20291;-76
2021/05/16 01:46:52;;;;;;;2.27;1.40;;;;;;;6.89;100.00;92860.97;5032793;28;20204;-77
2021/05/16 01:49:18;;;;;;;4.67;1.10;;;;;;;6.83;100.00;92867.00;5032842;28;20227;-77
2021/05/16 01:51:44;;;;;;;3.43;1.00;;;;;;;6.87;100.00;92868.19;5033031;28;20204;-77
2021/05/16 01:54:10;;;;;;;2.93;1.07;;;;;;;6.83;100.00;92861.81;5036638;28;20211;-76
2021/05/16 01:56:39;;;;;;;5.23;1.20;;;;;;;6.79;100.00;92863.19;5036396;28;20659;-77
2021/05/16 01:59:05;;;;;;;0.87;0.87;;;;;;;6.65;100.00;92863.19;5036698;28;20204;-76
2021/05/16 02:01:32;;;;;;;3.67;1.13;;;;;;;6.59;100.00;92861.38;5036205;28;20240;-77
2021/05/16 02:03:58;;;;;;;2.33;0.87;;;;;;;6.56;100.00;92864.38;5036604;28;20206;-76
2021/05/16 02:06:25;;;;;;;9.00;1.73;;;;;;;6.64;100.00;92859.00;5036419;28;20204;-77
2021/05/16 02:08:51;;;;;;;5.53;1.10;;;;;;;6.71;100.00;92863.38;5036164;28;20232;-76
2021/05/16 02:11:17;;;;;;;5.50;1.40;;;;;;;6.74;100.00;92860.41;5036236;28;20235;-76
2021/05/16 02:13:44;;;;;;;3.33;0.97;;;;;;;6.85;100.00;92857.22;5036552;28;20210;-75
2021/05/16 02:16:12;;;;;;;1.23;1.10;;;;;;;6.98;100.00;92861.59;5036419;28;20230;-75
2021/05/16 02:18:38;;;;;;;2.00;0.80;;;;;;;6.99;100.00;92861.38;5036234;28;20204;-75
2021/05/16 02:21:09;;;;;;;3.27;1.10;;;;;;;7.07;100.00;92859.59;5036063;28;20204;-77
2021/05/16 02:23:37;;;;;;;2.20;0.90;;;;;;;7.08;100.00;92863.75;5036117;28;20297;-77
2021/05/16 02:26:04;;;;;;;2.00;0.77;;;;;;;7.03;100.00;92856.59;5035906;28;20208;-76
2021/05/16 02:28:29;;;;;;;2.37;0.80;;;;;;;7.09;100.00;92870.56;5036115;28;20583;-75
2021/05/16 02:30:56;;;;;;;1.63;1.00;;;;;;;7.07;100.00;92868.16;5035807;28;20196;-76
2021/05/16 02:33:22;;;;;;;2.47;1.00;;;;;;;7.13;100.00;92861.38;5035898;28;20216;-77
2021/05/16 02:35:48;;;;;;;4.80;0.93;;;;;;;7.17;100.00;92870.34;5035741;28;20244;-76
2021/05/16 02:38:14;;;;;;;2.43;0.93;;;;;;;7.13;100.00;92861.38;5035531;28;20207;-76
2021/05/16 02:40:43;;;;;;;3.20;1.07;;;;;;;7.07;100.00;92867.38;5035540;28;20225;-77
2021/05/16 02:43:09;;;;;;;1.13;0.70;;;;;;;6.99;100.00;92869.16;5035757;28;20247;-76
2021/05/16 02:45:37;;;;;;;1.73;0.87;;;;;;;6.97;100.00;92871.16;5035805;28;20311;-76
2021/05/16 02:48:05;;;;;;;2.17;0.80;;;;;;;6.92;100.00;92870.19;5035542;28;20228;-76
2021/05/16 02:50:31;;;;;;;2.33;0.70;;;;;;;6.89;100.00;92868.75;5035461;28;20596;-76
2021/05/16 02:52:57;;;;;;;1.37;0.60;;;;;;;6.96;100.00;92866.97;5035486;28;20203;-77
2021/05/16 02:55:23;;;;;;;2.10;0.80;;;;;;;7.01;100.00;92864.59;5035604;28;20207;-77
2021/05/16 02:57:49;;;;;;;3.30;1.33;;;;;;;6.98;100.00;92859.78;5035569;28;20247;-75
2021/05/16 03:00:16;;;;;;;2.63;0.80;;;;;;;7.04;100.00;92863.38;5035551;28;20563;-77
2021/05/16 03:02:44;;;;;;;4.23;1.00;;;;;;;7.01;100.00;92856.78;5035163;28;20232;-77
2021/05/16 03:05:12;;;;;;;1.20;0.70;;;;;;;6.94;100.00;92858.59;5034317;28;20211;-77
2021/05/16 03:07:38;;;;;;;1.80;0.87;;;;;;;6.98;100.00;92859.78;5035013;28;20224;-77
2021/05/16 03:10:06;;;;;;;1.50;0.70;;;;;;;6.84;100.00;92848.63;5035352;28;20200;-77
2021/05/16 03:12:35;;;;;;;1.23;0.80;;;;;;;6.72;100.00;92846.84;5024588;28;20216;-76
2021/05/16 03:15:01;;;;;;;1.60;0.70;;;;;;;6.70;100.00;92851.44;5015202;28;20209;-76
2021/05/16 03:17:27;;;;;;;2.90;0.70;;;;;;;6.76;100.00;92851.44;5014669;28;20208;-77
2021/05/16 03:19:53;;;;;;;1.07;0.80;;;;;;;6.80;100.00;92839.63;5015149;28;20208;-76
2021/05/16 03:22:26;;;;;;;3.20;1.13;;;;;;;6.78;100.00;92840.84;5015348;28;20236;-76
2021/05/16 03:24:52;;;;;;;3.40;1.20;;;;;;;6.71;100.00;92840.03;5015353;28;20204;-77
2021/05/16 03:27:18;;;;;;;4.23;0.90;;;;;;;6.62;100.00;92829.88;5014972;28;20251;-77
2021/05/16 03:29:44;;;;;;;3.80;1.10;;;;;;;6.62;100.00;92835.06;5015043;28;20201;-76
2021/05/16 03:32:10;;;;;;;3.03;0.80;;;;;;;6.56;100.00;92830.69;5014799;28;20201;-76
2021/05/16 03:34:39;;;;;;;1.53;0.87;;;;;;;6.48;100.00;92834.25;5014229;28;20196;-76
2021/05/16 03:37:05;;;;;;;1.37;0.80;;;;;;;6.42;100.00;92835.03;5014824;28;20208;-76
2021/05/16 03:39:34;;;;;;;3.03;0.70;;;;;;;6.44;100.00;92834.84;5015032;28;20228;-75
2021/05/16 03:42:00;;;;;;;1.73;0.83;;;;;;;6.51;100.00;92842.63;5014924;28;20215;-76
2021/05/16 03:44:27;;;;;;;2.00;0.97;;;;;;;6.60;100.00;92841.44;5014724;28;20683;-76
2021/05/16 03:46:55;;;;;;;1.87;1.00;;;;;;;6.72;100.00;92845.03;5014635;28;20571;-76
2021/05/16 03:49:27;;;;;;;1.20;0.70;;;;;;;6.79;100.00;92847.63;5014550;28;20601;-76
2021/05/16 03:51:52;;;;;;;3.50;0.93;;;;;;;6.90;100.00;92841.84;5014829;28;20209;-76
2021/05/16 03:54:21;;;;;;;0.87;0.70;;;;;;;7.00;100.00;92859.59;5014630;28;20316;-76
2021/05/16 03:56:53;;;;;;;1.13;0.83;;;;;;;7.04;100.00;92846.03;5014580;28;20201;-76
2021/05/16 03:59:21;;;;;;;2.77;0.70;;;;;;;7.06;100.00;92850.19;5014492;28;20209;-77
2021/05/16 04:01:50;;;;;;;2.73;0.83;;;;;;;7.12;100.00;92857.19;5014182;28;20245;-76
2021/05/16 04:04:19;;;;;;;1.70;1.00;;;;;;;7.21;100.00;92858.53;5014680;28;20235;-76
2021/05/16 04:06:45;;;;;;;1.80;0.77;;;;;;;7.26;100.00;92856.16;5014473;28;20217;-77
2021/05/16 04:09:11;;;;;;;1.03;0.97;;;;;;;7.28;100.00;92864.53;5014335;28;20232;-76
2021/05/16 04:11:38;;;;;;;1.23;0.80;;;;;;;7.25;100.00;92864.94;5014333;28;20660;-76
2021/05/16 04:14:05;;;;;;;3.07;1.07;;;;;;;7.27;100.00;92860.34;5014199;28;20201;-76
2021/05/16 04:16:32;;;;;;;2.17;0.70;;;;;;;7.18;100.00;92869.34;5014210;28;20204;-76
2021/05/16 04:18:58;;;;;;;3.87;0.60;;;;;;;7.15;100.00;92867.16;5014256;28;20291;-76
2021/05/16 04:21:24;;;;;;;0.67;0.67;;;;;;;7.13;100.00;92869.16;5014011;28;20300;-76
2021/05/16 04:23:50;;;;;;;1.77;0.70;;;;;;;7.13;100.00;92871.75;5014094;28;20251;-76
2021/05/16 04:26:16;;;;;;;1.63;0.80;;;;;;;6.99;100.00;92870.97;5014002;28;20207;-76
2021/05/16 04:28:44;;;;;;;1.47;0.80;;;;;;;6.89;100.00;92866.16;5013869;28;20331;-76
2021/05/16 04:31:13;;;;;;;3.20;0.90;;;;;;;6.88;100.00;92862.00;5014116;28;20211;-76
2021/05/16 04:33:39;;;;;;;0.80;0.73;;;;;;;6.78;100.00;92867.59;5014059;28;20233;-76
2021/05/16 04:36:06;;;;;;;1.33;0.80;;;;;;;6.74;100.00;92861.19;5013899;28;20339;-76
2021/05/16 04:38:32;;;;;;;1.80;0.90;;;;;;;6.87;100.00;92870.75;5013809;28;20205;-76
2021/05/16 04:40:58;;;;;;;1.90;0.73;;;;;;;6.83;100.00;92870.38;5013815;28;20213;-76
2021/05/16 04:43:24;;;;;;;2.20;0.70;;;;;;;6.81;100.00;92874.97;5013553;28;20338;-75
2021/05/16 04:45:50;;;;;;;2.17;0.80;;;;;;;6.83;100.00;92869.59;5013862;28;20619;-76
2021/05/16 04:48:17;;;;;;;0.97;0.90;;;;;;;6.90;100.00;92877.38;5013604;28;20264;-76
2021/05/16 04:50:43;;;;;;;2.07;0.93;;;;;;;6.97;100.00;92865.97;5013698;28;20201;-76
2021/05/16 04:53:11;;;;;;;2.10;0.90;;;;;;;7.11;100.00;92869.38;5013597;28;20232;-76
2021/05/16 04:55:37;;;;;;;0.80;0.70;;;;;;;7.17;100.00;92862.56;5013442;28;20255;-75
2021/05/16 04:58:03;;;;;;;1.93;0.63;;;;;;;7.28;100.00;92874.94;5013325;28;20652;-76
2021/05/16 05:00:30;;;;;;;1.80;0.73;;;;;;;7.26;100.00;92871.75;5013611;28;20215;-76
2021/05/16 05:02:56;;;;;;;1.10;0.40;;;;;;;7.10;100.00;92869.56;5013195;28;20239;-76
2021/05/16 05:05:22;;;;;;;4.37;0.90;;;;;;;7.25;100.00;92870.13;5013509;28;20258;-76
2021/05/16 05:07:49;;;;;;;0.73;0.70;;;;;;;7.46;100.00;92873.47;5015786;28;20687;-76
2021/05/16 05:10:18;;;;;;;1.80;0.70;;;;;;;7.59;100.00;92870.84;5032940;28;20657;-76
2021/05/16 05:12:43;;;;;;;2.57;0.80;;;;;;;7.66;100.00;92870.81;5032858;28;20265;-76
2021/05/16 05:15:10;;;;;;;1.13;0.60;;;;;;;7.86;100.00;92870.75;5033128;28;20209;-76
2021/05/16 05:17:40;;;;;;;1.00;0.83;;;;;;;7.90;100.00;92866.75;5033055;28;20208;-76
2021/05/16 05:20:07;;;;;;;1.20;0.60;;;;;;;7.84;100.00;92872.75;5032911;28;20200;-77
2021/05/16 05:22:34;;;;;;;0.83;0.70;;;;;;;7.59;100.00;92868.25;5032899;28;20207;-77
2021/05/16 05:25:00;;;;;;;3.10;0.80;;;;;;;7.49;100.00;92865.28;5032759;28;20709;-76
2021/05/16 05:27:28;;;;;;;1.57;0.80;;;;;;;7.59;100.00;92865.66;5032465;28;20223;-77
2021/05/16 05:29:54;;;;;;;1.33;0.60;;;;;;;7.87;100.00;92867.94;5031824;28;20437;-77
2021/05/16 05:32:22;;;;;;;1.53;0.60;;;;;;;7.93;100.00;92863.75;5032494;28;20207;-75
2021/05/16 05:34:48;;;;;;;1.63;0.90;;;;;;;9.03;100.00;92860.06;5032667;28;20200;-76
2021/05/16 05:37:14;;;;;;;3.83;0.70;;;;;;;10.11;98.10;92861.34;5032222;28;20285;-77
2021/05/16 05:39:41;;;;;;;0.80;0.60;;;;;;;11.01;96.29;92864.91;5032607;28;20561;-76
2021/05/16 05:42:10;;;;;;;1.77;0.80;;;;;;;11.32;93.10;92865.59;5032901;28;20208;-76
2021/05/16 05:44:39;;;;;;;1.90;0.70;;;;;;;12.18;88.89;92865.84;5032524;28;20215;-76
2021/05/16 05:47:08;;;;;;;3.10;0.80;;;;;;;12.49;85.33;92863.78;5032759;28;20208;-76
2021/05/16 05:49:34;;;;;;;2.10;0.80;;;;;;;12.37;86.30;92861.22;5032668;28;20204;-77
2021/05/16 05:52:02;;;;;;;1.93;0.80;;;;;;;11.20;92.79;92865.59;5032546;28;20266;-75
2021/05/16 05:54:28;;;;;;;2.07;0.73;;;;;;;9.45;100.00;92881.13;5032475;28;20211;-76
2021/05/16 05:56:58;;;;;;;2.00;0.80;;;;;;;8.79;100.00;92877.25;5032671;28;20203;-76
2021/05/16 05:59:27;;;;;;;4.03;1.00;;;;;;;8.44;100.00;92875.91;5032589;28;20204;-77
2021/05/16 06:01:53;;;;;;;3.63;1.30;;;;;;;8.14;100.00;92884.25;5031961;28;20351;-76
2021/05/16 06:04:22;;;;;;;2.33;0.83;;;;;;;7.91;100.00;92881.31;5032568;28;20715;-76
2021/05/16 06:06:48;;;;;;;6.83;1.10;;;;;;;7.82;100.00;92896.34;5032347;28;20200;-76
2021/05/16 06:09:15;;;;;;;4.43;1.40;;;;;;;7.71;100.00;92891.78;5032578;28;20578;-76
2021/05/16 06:11:41;;;;;;;5.27;1.27;;;;;;;7.69;100.00;92897.19;5032459;28;20203;-76
2021/05/16 06:14:10;;;;;;;4.23;1.00;;;;;;;7.67;100.00;92894.00;5032255;28;20204;-76
2021/05/16 06:16:36;;;;;;;3.33;1.30;;;;;;;7.75;100.00;92893.00;5032340;28;20674;-77
2021/05/16 06:19:04;;;;;;;1.10;1.00;;;;;;;7.81;100.00;92886.16;5032417;28;20197;-76
2021/05/16 06:21:32;;;;;;;4.57;1.30;;;;;;;8.02;100.00;92891.09;5032384;28;20556;-76
2021/05/16 06:24:04;;;;;;;5.10;1.13;;;;;;;8.18;100.00;92892.41;5032495;28;20291;-77
2021/05/16 06:26:32;;;;;;;3.30;1.13;;;;;;;8.43;100.00;92881.31;5032339;28;20694;-76
2021/05/16 06:28:59;;;;;;;3.60;1.07;;;;;;;8.70;100.00;92890.53;5032291;28;20278;-76
2021/05/16 06:31:26;;;;;;;4.80;1.10;;;;;;;8.91;100.00;92882.56;5032321;28;20207;-77
2021/05/16 06:33:52;;;;;;;4.97;1.13;;;;;;;9.00;100.00;92889.91;5032092;28;20204;-77
2021/05/16 06:36:21;;;;;;;4.37;1.23;;;;;;;9.01;100.00;92890.72;5032384;28;20552;-77
2021/05/16 06:38:47;;;;;;;10.13;1.77;;;;;;;9.33;100.00;92883.63;5032754;28;20205;-77
2021/05/16 06:41:18;;;;;;;3.83;1.60;;;;;;;9.49;100.00;92884.88;5035791;28;20671;-76
2021/05/16 06:43:45;;;;;;;3.30;1.20;;;;;;;9.62;100.00;92882.13;5035649;28;20232;-76
2021/05/16 06:46:12;;;;;;;2.93;1.00;;;;;;;9.75;100.00;92872.59;5035472;28;20238;-77
2021/05/16 06:48:39;;;;;;;5.40;1.10;;;;;;;10.24;100.00;92867.38;5035489;28;20228;-77
2021/05/16 06:51:05;;;;;;;3.83;1.13;;;;;;;10.74;100.00;92870.53;5035371;28;20437;-76
2021/05/16 06:53:32;;;;;;;3.53;1.10;;;;;;;10.50;100.00;92864.44;5035708;28;20207;-76
2021/05/16 06:56:01;;;;;;;5.43;1.30;;;;;;;10.21;100.00;92881.69;5035400;28;20219;-77
2021/05/16 06:58:27;;;;;;;4.73;1.10;;;;;;;10.21;100.00;92876.47;5035318;28;20200;-76
2021/05/16 07:00:53;;;;;;;4.60;1.17;;;;;;;9.92;100.00;92873.59;5031973;28;20216;-77
2021/05/16 07:03:19;;;;;;;4.83;1.00;;;;;;;10.05;100.00;92867.41;5035545;28;20204;-77
2021/05/16 07:05:46;;;;;;;5.07;1.57;;;;;;;9.84;100.00;92871.28;5035423;28;20204;-76
2021/05/16 07:08:12;;;;;;;6.30;1.03;;;;;;;9.92;100.00;92872.78;5035266;28;20254;-77
2021/05/16 07:10:38;;;;;;;8.10;1.33;;;;;;;10.03;100.00;92866.06;5034969;28;20681;-77
2021/05/16 07:13:04;;;;;;;3.50;1.23;;;;;;;10.26;100.00;92863.56;5035110;28;20203;-76
2021/05/16 07:15:31;;;;;;;5.50;1.40;;;;;;;10.53;100.00;92865.84;5035046;28;20693;-77
2021/05/16 07:18:00;;;;;;;6.80;1.50;;;;;;;10.64;99.73;92859.84;5035181;28;20290;-77
2021/05/16 07:20:26;;;;;;;8.40;1.30;;;;;;;11.03;100.00;92865.47;5034996;28;20231;-77
2021/05/16 07:22:53;;;;;;;7.73;1.53;;;;;;;10.93;100.00;92860.00;5035019;28;20211;-77
2021/05/16 07:25:19;;;;;;;8.37;1.23;;;;;;;10.84;97.06;92858.75;5034964;28;20200;-77
2021/05/16 07:27:46;;;;;;;7.87;1.33;;;;;;;10.87;94.45;92860.91;5034857;28;20240;-77
2021/05/16 07:30:14;;;;;;;11.73;2.10;;;;;;;10.82;96.07;92868.63;5034692;28;20227;-77
2021/05/16 07:32:40;;;;;;;15.67;1.83;;;;;;;10.59;92.04;92861.53;5034939;28;20199;-76
2021/05/16 07:35:07;;;;;;;7.63;2.27;;;;;;;10.60;92.48;92874.34;5034551;28;20254;-76
2021/05/16 07:37:33;;;;;;;11.93;1.97;;;;;;;10.50;92.32;92868.88;5034777;28;20204;-77
2021/05/16 07:40:00;;;;;;;5.03;1.47;;;;;;;10.52;93.22;92865.03;5034633;28;20254;-76
2021/05/16 07:42:27;;;;;;;3.67;1.27;;;;;;;10.35;94.83;92877.09;5034467;28;20223;-76
2021/05/16 07:44:53;;;;;;;8.13;1.53;;;;;;;10.24;91.57;92864.78;5034796;28;20235;-77
2021/05/16 07:47:19;;;;;;;6.77;1.63;;;;;;;10.05;97.10;92861.41;5034568;28;20555;-76
2021/05/16 07:49:45;;;;;;;10.60;1.90;;;;;;;10.05;95.30;92858.81;5034140;28;20196;-77
2021/05/16 07:52:11;;;;;;;10.20;1.50;;;;;;;10.14;97.27;92865.31;5034508;28;20239;-76
2021/05/16 07:54:39;;;;;;;9.23;1.30;;;;;;;10.25;97.94;92863.78;5034367;28;20204;-77
2021/05/16 07:57:08;;;;;;;14.97;2.40;;;;;;;10.43;91.35;92861.16;5034096;28;20606;-77
2021/05/16 07:59:36;;;;;;;7.00;1.93;;;;;;;10.24;94.33;92870.81;5034252;28;20736;-78
2021/05/16 08:02:02;;;;;;;10.90;1.57;;;;;;;10.30;93.40;92862.09;5034019;28;20634;-76
2021/05/16 08:04:28;;;;;;;11.47;1.80;;;;;;;10.77;94.01;92858.84;5034261;28;20195;-77
2021/05/16 08:06:56;;;;;;;11.53;1.77;;;;;;;11.10;94.09;92860.94;5034053;28;20196;-76
2021/05/16 08:09:23;;;;;;;5.30;1.27;;;;;;;11.14;91.33;92855.25;5034069;28;20234;-76
2021/05/16 08:11:49;;;;;;;7.70;1.43;;;;;;;11.57;92.68;92867.97;5033925;28;20567;-75
2021/05/16 08:14:15;;;;;;;9.60;1.53;;;;;;;11.72;86.36;92864.09;5034127;28;20208;-77
2021/05/16 08:16:42;;;;;;;9.20;1.93;;;;;;;11.57;86.30;92854.91;5034139;28;20355;-76
2021/05/16 08:19:09;;;;;;;9.30;1.50;;;;;;;11.95;92.82;92852.81;5033966;28;20247;-76
2021/05/16 08:21:37;;;;;;;9.73;2.00;;;;;;;11.91;86.46;92851.69;5033890;28;20290;-76
2021/05/16 08:24:03;;;;;;;8.73;1.63;;;;;;;12.29;88.59;92847.69;5033820;28;20593;-79
2021/05/16 08:26:29;;;;;;;5.47;1.20;;;;;;;11.86;82.96;92849.75;5033732;28;20683;-77
2021/05/16 08:28:55;;;;;;;6.57;2.17;;;;;;;11.76;86.79;92852.16;5033627;28;20224;-76
2021/05/16 08:31:22;;;;;;;11.80;1.77;;;;;;;11.16;86.30;92851.41;5033738;28;20479;-77
2021/05/16 08:33:51;;;;;;;8.43;1.70;;;;;;;11.01;88.72;92857.06;5033630;28;20204;-77
2021/05/16 08:36:17;;;;;;;6.20;1.20;;;;;;;11.10;86.82;92855.69;5033601;28;20330;-77
2021/05/16 08:38:46;;;;;;;8.03;1.50;;;;;;;11.82;86.80;92848.59;5033483;28;20208;-79
2021/05/16 08:41:13;;;;;;;6.00;1.13;;;;;;;12.23;78.67;92846.03;5033584;28;20204;-77
2021/05/16 08:43:41;;;;;;;4.20;1.27;;;;;;;12.12;78.23;92840.59;5033572;28;20203;-76
2021/05/16 08:46:12;;;;;;;6.40;1.50;;;;;;;12.20;81.63;92849.91;5033358;28;20678;-77
2021/05/16 08:48:39;;;;;;;6.40;1.60;;;;;;;12.47;77.14;92829.19;5033219;28;20230;-77
2021/05/16 08:51:05;;;;;;;6.07;1.37;;;;;;;12.44;77.97;92841.94;5032831;28;20204;-77
2021/05/16 08:53:31;;;;;;;8.30;1.30;;;;;;;12.24;75.11;92843.19;5030401;28;20204;-77
2021/05/16 08:55:57;;;;;;;4.27;1.40;;;;;;;12.26;79.04;92837.69;5033440;28;20207;-77
2021/05/16 08:58:23;;;;;;;6.17;1.57;;;;;;;12.49;78.05;92836.78;5033336;28;20199;-77
2021/05/16 09:00:49;;;;;;;7.87;1.53;;;;;;;12.87;76.86;92837.97;5032972;28;20603;-76
2021/05/16 09:03:16;;;;;;;6.57;1.23;;;;;;;12.77;76.45;92833.34;5032204;28;20556;-78
2021/05/16 09:05:47;;;;;;;9.90;1.40;;;;;;;13.12;76.84;92845.41;5033011;28;20669;-76
2021/05/16 09:08:20;;;;;;;6.00;1.70;;;;;;;12.95;73.15;92830.50;5032996;28;20775;-76
2021/05/16 09:10:49;;;;;;;10.53;1.50;;;;;;;13.37;80.04;92831.94;5032984;28;20202;-76
2021/05/16 09:13:18;;;;;;;3.70;1.13;;;;;;;13.13;72.65;92839.94;5032578;28;20204;-76
2021/05/16 09:15:59;;;;;;;8.83;1.20;;;;;;;12.47;74.38;92823.16;5033092;28;20299;-76
2021/05/16 09:18:33;;;;;;;4.93;1.17;;;;;;;12.92;76.32;92817.06;5032908;28;20200;-77
2021/05/16 09:24:10;;;;;;;6.17;1.20;;;;;;;12.61;69.57;92831.50;5131418;27;20508;-75
2021/05/16 09:26:38;;;;;;;6.67;1.27;;;;;;;12.65;72.59;92827.41;5110646;28;20297;-80
2021/05/16 09:29:26;;;;;;;7.03;1.20;;;;;;;12.94;79.10;92828.94;5110659;28;20197;-77
2021/05/16 09:31:53;;;;;;;8.00;1.30;;;;;;;12.84;68.55;92849.72;5110547;28;20202;-77
2021/05/16 09:34:20;;;;;;;6.77;1.20;;;;;;;12.66;70.12;92824.53;5110345;28;20201;-77
2021/05/16 09:36:46;;;;;;;7.80;1.57;;;;;;;12.69;68.17;92823.25;5109722;28;20201;-77
2021/05/16 09:39:14;;;;;;;8.73;1.47;;;;;;;13.18;70.44;92820.88;5110339;28;20197;-77
2021/05/16 09:42:03;;;;;;;6.77;1.10;;;;;;;12.76;66.78;92826.53;5110706;28;20201;-76
2021/05/16 09:44:31;;;;;;;5.40;1.90;;;;;;;13.61;69.55;92837.78;5110521;28;20201;-77
2021/05/16 09:47:18;;;;;;;3.67;0.80;;;;;;;13.80;62.80;92834.84;5110351;28;20202;-76
2021/05/16 09:49:53;;;;;;;8.90;1.40;;;;;;;13.91;64.97;92828.69;5110167;28;20213;-77
2021/05/16 09:52:20;;;;;;;4.03;0.70;;;;;;;13.38;63.62;92817.78;5110432;28;20200;-77
2021/05/16 09:54:55;;;;;;;6.03;1.00;;;;;;;13.61;65.61;92816.78;5110304;28;20205;-77
2021/05/16 09:57:22;;;;;;;6.70;1.47;;;;;;;13.71;67.06;92815.34;5110156;28;20242;-76
2021/05/16 09:59:48;;;;;;;6.53;1.33;;;;;;;13.58;65.00;92817.28;5110116;28;20193;-76
2021/05/16 10:02:14;;;;;;;4.82;1.17;;;;;;;13.89;65.94;92807.16;5109568;28;20451;-76
2021/05/16 10:04:41;;;;;;;4.33;1.53;;;;;;;14.29;64.98;92807.84;5110205;28;20259;-78
2021/05/16 10:07:07;;;;;;;5.33;1.43;;;;;;;14.92;66.11;92809.00;5110205;28;20197;-77
2021/05/16 10:09:33;;;;;;;7.87;1.33;;;;;;;15.14;63.64;92802.84;5110041;28;20205;-77
2021/05/16 10:12:02;;;;;;;5.05;1.38;;;;;;;15.41;61.86;92815.91;5109930;28;20255;-76
2021/05/16 10:14:30;;;;;;;6.82;1.40;;;;;;;15.03;63.01;92809.06;5109792;28;20198;-76
2021/05/16 10:17:00;;;;;;;4.47;1.02;;;;;;;14.93;63.30;92807.16;5109763;28;20293;-76
2021/05/16 10:19:32;;;;;;;3.72;0.95;;;;;;;14.43;62.58;92804.56;5109831;28;20202;-76
2021/05/16 10:22:11;;;;;;;7.75;1.55;;;;;;;15.02;65.09;92803.03;5109371;28;20237;-77
2021/05/16 10:24:39;;;;;;;5.10;0.85;;;;;;;14.98;61.75;92809.81;5109749;28;20231;-76
2021/05/16 10:27:21;;;;;;;3.88;1.00;;;;;;;14.61;61.69;92792.97;5109570;28;20201;-77
2021/05/16 10:29:50;;;;;;;3.92;1.00;;;;;;;14.21;59.57;92796.75;5109534;28;20233;-77
2021/05/16 10:32:30;;;;;;;4.55;1.17;;;;;;;14.55;57.68;92785.25;5109709;28;20202;-79
2021/05/16 10:34:58;;;;;;;5.55;0.80;;;;;;;14.42;59.50;92768.88;5097379;28;20209;-77
2021/05/16 10:37:46;;;;;;;5.10;1.05;;;;;;;14.89;58.98;92769.25;5096149;28;20198;-77
2021/05/16 10:40:26;;;;;;;3.57;1.03;;;;;;;14.70;56.85;92769.63;5096078;28;20593;-80
2021/05/16 10:42:54;;;;;;;5.17;1.33;;;;;;;14.47;56.99;92775.19;5095705;28;20723;-79
2021/05/16 10:45:23;;;;;;;5.47;1.20;;;;;;;14.55;55.16;92766.88;5095771;28;20271;-76
2021/05/16 10:47:56;;;;;;;3.07;0.73;;;;;;;14.01;57.45;92757.97;5087199;28;20210;-76
2021/05/16 10:50:53;;;;;;;4.30;1.30;;;;;;;14.09;56.44;92753.31;5075540;28;20202;-78
2021/05/16 10:53:23;;;;;;;2.83;0.90;;;;;;;14.20;56.61;92745.28;5074540;28;20233;-77
2021/05/16 10:55:50;;;;;;;3.43;0.77;;;;;;;14.72;60.61;92756.25;5075313;28;20226;-76
2021/05/16 10:58:56;;;;;;;5.17;1.00;;;;;;;15.06;58.75;92756.78;5075128;28;20203;-77
2021/05/16 11:01:37;;;;;;;6.75;1.23;;;;;;;15.76;56.30;92755.84;5044752;28;20289;-78
2021/05/16 11:04:05;;;;;;;5.47;0.93;;;;;;;16.08;53.17;92751.19;5075161;28;20207;-75
2021/05/16 11:06:59;;;;;;;4.35;1.15;;;;;;;15.77;52.94;92750.34;5074958;28;20332;-77
2021/05/16 11:09:35;;;;;;;3.85;0.90;;;;;;;16.06;52.51;92747.25;5075119;28;20209;-76
2021/05/16 11:12:02;;;;;;;0.90;0.82;;;;;;;15.68;51.34;92736.03;5075185;28;20573;-78
2021/05/16 11:14:33;;;;;;;4.55;0.93;;;;;;;15.69;56.68;92748.16;5074939;28;20199;-78
2021/05/16 11:17:01;;;;;;;3.17;0.70;;;;;;;16.70;56.48;92734.69;5074913;28;20734;-76
2021/05/16 11:19:29;;;;;;;3.88;0.80;;;;;;;15.49;50.57;92735.72;5074728;28;20206;-79
2021/05/16 11:21:55;;;;;;;1.52;0.63;;;;;;;16.12;55.37;92714.63;5074711;28;20235;-78
2021/05/16 11:24:48;;;;;;;2.50;0.93;;;;;;;15.87;50.78;92696.91;5074878;28;20202;-77
2021/05/16 11:27:23;;;;;;;3.17;0.85;;;;;;;14.59;51.00;92707.59;5074776;28;20336;-76
2021/05/16 11:30:04;;;;;;;9.90;1.00;;;;;;;14.21;53.84;92698.84;5074499;28;20292;-76
2021/05/16 11:32:31;;;;;;;5.70;1.08;;;;;;;14.94;55.95;92690.47;5073733;28;20202;-77
2021/05/16 11:35:16;;;;;;;4.15;1.13;;;;;;;15.65;53.64;92681.31;5072435;28;20205;-76
2021/05/16 11:37:45;;;;;;;2.58;0.63;;;;;;;16.37;57.18;92692.78;5070737;28;20588;-80
2021/05/16 11:40:20;;;;;;;2.40;0.70;;;;;;;15.44;51.46;92689.13;5073411;28;20202;-79